createdAt,value
2023-04-18T00:00:19.135Z,8.20
2023-04-18T00:03:21.860Z,8.20
2023-04-18T00:06:23.641Z,8.20
2023-04-18T00:09:25.587Z,8.20
2023-04-18T00:12:27.822Z,8.10
2023-04-18T00:15:30.168Z,8.20
2023-04-18T00:18:31.734Z,8.20
2023-04-18T00:21:33.405Z,8.20
2023-04-18T00:24:35.022Z,8.20
2023-04-18T00:27:41.065Z,8.20
2023-04-18T00:30:42.728Z,8.20
2023-04-18T00:33:44.388Z,8.10
2023-04-18T00:36:45.989Z,8.20
2023-04-18T00:39:47.652Z,8.20
2023-04-18T00:42:49.204Z,8.20
2023-04-18T00:45:50.827Z,8.20
2023-04-18T00:48:52.552Z,8.10
2023-04-18T00:51:56.387Z,8.20
2023-04-18T00:54:58.038Z,8.10
2023-04-18T00:57:59.692Z,8.10
2023-04-18T01:01:01.293Z,8.10
2023-04-18T01:04:03.052Z,8.00
2023-04-18T01:07:05.305Z,8.00
2023-04-18T01:10:08.027Z,8.00
2023-04-18T01:13:14.115Z,8.00
2023-04-18T01:16:15.756Z,8.00
2023-04-18T01:19:17.456Z,8.00
2023-04-18T01:22:19.726Z,7.90
2023-04-18T01:25:21.346Z,7.90
2023-04-18T01:28:23.013Z,7.90
2023-04-18T01:31:24.822Z,7.90
2023-04-18T01:34:26.408Z,7.90
2023-04-18T01:37:28.001Z,7.80
2023-04-18T01:40:30.156Z,7.70
2023-04-18T01:43:31.759Z,7.60
2023-04-18T01:46:33.593Z,7.60
2023-04-18T01:49:35.149Z,7.50
2023-04-18T01:52:36.709Z,7.40
2023-04-18T01:55:38.295Z,7.30
2023-04-18T01:58:41.533Z,7.10
2023-04-18T02:01:43.294Z,7.00
2023-04-18T02:04:44.912Z,7.00
2023-04-18T02:07:47.613Z,6.90
2023-04-18T02:10:49.255Z,6.80
2023-04-18T02:13:50.843Z,6.80
2023-04-18T02:16:52.497Z,6.70
2023-04-18T02:19:54.130Z,6.70
2023-04-18T02:22:55.752Z,6.60
2023-04-18T02:25:57.338Z,6.50
2023-04-18T02:28:58.986Z,6.50
2023-04-18T02:32:00.664Z,6.40
2023-04-18T02:35:02.441Z,6.30
2023-04-18T02:38:04.074Z,6.20
2023-04-18T02:41:05.741Z,6.20
2023-04-18T02:44:08.622Z,6.20
2023-04-18T02:47:10.279Z,6.10
2023-04-18T02:50:11.947Z,6.10
2023-04-18T02:53:13.500Z,6.10
2023-04-18T02:56:16.989Z,6.10
2023-04-18T02:59:18.613Z,6.10
2023-04-18T03:02:20.872Z,6.00
2023-04-18T03:05:22.728Z,6.00
2023-04-18T03:08:24.463Z,6.00
2023-04-18T03:11:26.074Z,6.00
2023-04-18T03:14:27.680Z,5.90
2023-04-18T03:17:29.408Z,6.00
2023-04-18T03:20:31.720Z,5.90
2023-04-18T03:23:37.362Z,5.90
2023-04-18T03:26:39.848Z,5.80
2023-04-18T03:29:42.435Z,5.70
2023-04-18T03:32:46.877Z,5.60
2023-04-18T03:35:51.587Z,5.60
2023-04-18T03:38:56.885Z,5.50
2023-04-18T03:42:06.360Z,5.50
2023-04-18T03:45:11.319Z,5.50
2023-04-18T03:48:22.445Z,5.50
2023-04-18T03:51:24.886Z,5.50
2023-04-18T03:54:26.772Z,5.60
2023-04-18T03:57:28.918Z,5.60
2023-04-18T04:00:33.692Z,5.60
2023-04-18T04:03:39.032Z,5.60
2023-04-18T04:06:42.070Z,5.60
2023-04-18T04:09:44.009Z,5.60
2023-04-18T04:12:47.536Z,5.50
2023-04-18T04:15:49.321Z,5.50
2023-04-18T04:18:50.863Z,5.50
2023-04-18T04:21:52.571Z,5.60
2023-04-18T04:24:54.185Z,5.60
2023-04-18T04:27:55.836Z,5.50
2023-04-18T04:30:58.093Z,5.50
2023-04-18T04:33:59.756Z,5.50
2023-04-18T04:37:01.568Z,5.50
2023-04-18T04:40:06.534Z,5.50
2023-04-18T04:43:12.821Z,5.50
2023-04-18T04:46:15.425Z,5.40
2023-04-18T04:49:17.231Z,5.50
2023-04-18T04:52:18.935Z,5.50
2023-04-18T04:55:20.873Z,5.50
2023-04-18T04:58:22.633Z,5.50
2023-04-18T05:01:24.391Z,5.50
2023-04-18T05:04:26.216Z,5.50
2023-04-18T05:07:30.600Z,5.50
2023-04-18T05:10:32.654Z,5.50
2023-04-18T05:13:34.258Z,5.60
2023-04-18T05:16:36.371Z,5.60
2023-04-18T05:19:38.093Z,5.70
2023-04-18T05:22:39.692Z,5.80
2023-04-18T05:25:41.395Z,5.80
2023-04-18T05:28:43.013Z,6.00
2023-04-18T05:31:44.679Z,6.00
2023-04-18T05:34:46.854Z,6.20
2023-04-18T05:37:48.626Z,6.30
2023-04-18T05:40:55.579Z,6.50
2023-04-18T05:44:04.851Z,6.60
2023-04-18T05:47:07.177Z,6.70
2023-04-18T05:50:09.207Z,6.90
2023-04-18T05:53:10.954Z,7.00
2023-04-18T05:56:12.557Z,7.10
2023-04-18T05:59:14.201Z,7.30
2023-04-18T06:02:15.958Z,7.40
2023-04-18T06:05:18.061Z,7.50
2023-04-18T06:08:19.827Z,7.70
2023-04-18T06:11:21.494Z,7.90
2023-04-18T06:14:23.189Z,7.90
2023-04-18T06:17:24.817Z,8.00
2023-04-18T06:20:26.676Z,8.10
2023-04-18T06:23:28.299Z,8.30
2023-04-18T06:26:32.005Z,8.20
2023-04-18T06:29:35.047Z,8.20
2023-04-18T06:32:37.976Z,8.20
2023-04-18T06:35:39.662Z,8.10
2023-04-18T06:38:41.748Z,8.20
2023-04-18T06:41:43.366Z,8.30
2023-04-18T06:44:44.955Z,8.30
2023-04-18T06:47:47.692Z,8.30
2023-04-18T06:50:49.388Z,8.30
2023-04-18T06:53:52.906Z,8.30
2023-04-18T06:56:54.633Z,8.30
2023-04-18T06:59:57.312Z,8.30
2023-04-18T07:02:59.085Z,8.30
2023-04-18T07:06:00.957Z,8.30
2023-04-18T07:09:02.895Z,8.30
2023-04-18T07:12:04.754Z,8.50
2023-04-18T07:15:06.853Z,8.50
2023-04-18T07:18:08.676Z,8.50
2023-04-18T07:21:10.372Z,8.60
2023-04-18T07:24:12.591Z,8.60
2023-04-18T07:27:15.188Z,8.70
2023-04-18T07:30:16.853Z,8.80
2023-04-18T07:33:18.482Z,8.90
2023-04-18T07:36:20.175Z,8.90
2023-04-18T07:39:22.063Z,8.90
2023-04-18T07:42:23.716Z,9.00
2023-04-18T07:45:25.690Z,9.00
2023-04-18T07:48:27.363Z,9.00
2023-04-18T07:51:31.675Z,9.10
2023-04-18T07:54:33.379Z,9.10
2023-04-18T07:57:35.056Z,9.00
2023-04-18T08:00:39.086Z,9.00
2023-04-18T08:03:41.775Z,9.10
2023-04-18T08:06:43.556Z,9.20
2023-04-18T08:09:45.806Z,9.20
2023-04-18T08:12:47.424Z,9.10
2023-04-18T08:15:49.042Z,9.10
2023-04-18T08:18:50.688Z,9.20
2023-04-18T08:21:52.296Z,9.20
2023-04-18T08:25:04.401Z,9.20
2023-04-18T08:28:08.491Z,9.30
2023-04-18T08:31:13.411Z,9.50
2023-04-18T08:34:15.214Z,9.70
2023-04-18T08:37:16.888Z,9.70
2023-04-18T08:40:19.177Z,9.60
2023-04-18T08:43:21.047Z,9.70
2023-04-18T08:46:23.114Z,9.80
2023-04-18T08:49:25.119Z,10.00
2023-04-18T08:52:29.448Z,10.00
2023-04-18T08:55:33.436Z,10.10
2023-04-18T08:58:35.065Z,10.40
2023-04-18T09:01:57.485Z,10.50
2023-04-18T09:04:59.623Z,10.50
2023-04-18T09:08:22.162Z,10.50
2023-04-18T09:11:25.970Z,10.90
2023-04-18T09:14:27.698Z,11.10
2023-04-18T09:17:38.255Z,10.80
2023-04-18T09:20:42.106Z,10.80
2023-04-18T09:23:43.767Z,10.90
2023-04-18T09:26:45.322Z,11.00
2023-04-18T09:29:49.461Z,11.50
2023-04-18T09:32:59.391Z,11.70
2023-04-18T09:36:21.620Z,12.00
2023-04-18T09:39:29.264Z,12.10
2023-04-18T09:42:36.084Z,12.30
2023-04-18T09:45:38.407Z,12.20
2023-04-18T09:48:42.902Z,11.90
2023-04-18T09:51:46.001Z,12.10
2023-04-18T09:54:49.063Z,12.20
2023-04-18T09:57:52.479Z,12.30
2023-04-18T10:00:54.636Z,12.30
2023-04-18T10:03:57.645Z,12.40
2023-04-18T10:07:00.666Z,12.50
2023-04-18T10:10:02.336Z,12.50
2023-04-18T10:13:06.628Z,12.40
2023-04-18T10:16:08.403Z,12.40
2023-04-18T10:19:27.226Z,12.40
2023-04-18T10:22:28.901Z,12.70
2023-04-18T10:25:39.641Z,12.80
2023-04-18T10:28:53.346Z,13.10
2023-04-18T10:31:55.550Z,13.30
2023-04-18T10:35:00.936Z,13.50
2023-04-18T10:38:02.522Z,13.80
2023-04-18T10:41:22.549Z,14.20
2023-04-18T10:44:24.292Z,14.10
2023-04-18T10:47:26.097Z,14.00
2023-04-18T10:50:27.747Z,14.20
2023-04-18T10:53:32.424Z,14.20
2023-04-18T10:56:34.185Z,14.00
2023-04-18T10:59:39.244Z,14.00
2023-04-18T11:02:47.887Z,13.90
2023-04-18T11:05:49.627Z,14.10
2023-04-18T11:08:51.703Z,14.20
2023-04-18T11:12:12.028Z,14.40
2023-04-18T11:15:17.725Z,14.50
2023-04-18T11:18:19.392Z,14.50
2023-04-18T11:21:20.988Z,14.60
2023-04-18T11:24:24.083Z,14.60
2023-04-18T11:27:26.875Z,14.50
2023-04-18T11:30:36.095Z,14.70
2023-04-18T11:33:37.810Z,15.00
2023-04-18T11:36:39.901Z,15.20
2023-04-18T11:39:43.330Z,15.10
2023-04-18T11:42:45.039Z,14.90
2023-04-18T11:46:00.135Z,15.00
2023-04-18T11:49:02.100Z,15.10
2023-04-18T11:52:11.404Z,15.10
2023-04-18T11:55:18.626Z,15.40
2023-04-18T11:58:36.602Z,15.50
2023-04-18T12:01:38.220Z,15.60
2023-04-18T12:05:00.166Z,15.40
2023-04-18T12:08:10.072Z,15.40
2023-04-18T12:11:20.706Z,15.60
2023-04-18T12:14:22.711Z,15.90
2023-04-18T12:17:27.136Z,16.10
2023-04-18T12:20:52.177Z,16.10
2023-04-18T12:23:53.844Z,16.00
2023-04-18T12:26:57.345Z,16.00
2023-04-18T12:29:58.943Z,15.70
2023-04-18T12:33:02.822Z,15.50
2023-04-18T12:36:05.521Z,15.50
2023-04-18T12:39:07.177Z,15.40
2023-04-18T12:42:08.763Z,15.50
2023-04-18T12:45:11.383Z,15.20
2023-04-18T12:48:13.661Z,15.20
2023-04-18T12:51:15.385Z,15.10
2023-04-18T12:54:16.996Z,15.00
2023-04-18T12:57:18.732Z,15.10
2023-04-18T13:00:23.242Z,15.20
2023-04-18T13:03:25.109Z,15.30
2023-04-18T13:06:27.032Z,15.30
2023-04-18T13:09:28.744Z,15.40
2023-04-18T13:12:30.732Z,15.60
2023-04-18T13:15:32.386Z,15.80
2023-04-18T13:18:34.053Z,15.60
2023-04-18T13:21:35.647Z,15.60
2023-04-18T13:24:37.248Z,15.60
2023-04-18T13:27:41.724Z,15.80
2023-04-18T13:30:43.682Z,15.80
2023-04-18T13:33:45.244Z,15.80
2023-04-18T13:36:46.895Z,15.80
2023-04-18T13:39:49.065Z,15.60
2023-04-18T13:42:51.356Z,15.50
2023-04-18T13:45:54.005Z,15.70
2023-04-18T13:48:55.645Z,15.80
2023-04-18T13:51:57.646Z,15.70
2023-04-18T13:54:59.258Z,15.80
2023-04-18T13:58:00.930Z,15.90
2023-04-18T14:01:02.548Z,16.00
2023-04-18T14:04:04.279Z,16.10
2023-04-18T14:07:06.328Z,16.00
2023-04-18T14:10:08.357Z,15.90
2023-04-18T14:13:09.969Z,15.90
2023-04-18T14:16:11.835Z,16.00
2023-04-18T14:19:13.815Z,16.00
2023-04-18T14:22:15.578Z,15.90
2023-04-18T14:25:17.258Z,15.90
2023-04-18T14:28:21.499Z,15.90
2023-04-18T14:31:23.198Z,15.90
2023-04-18T14:34:24.825Z,15.80
2023-04-18T14:37:26.457Z,15.90
2023-04-18T14:40:28.067Z,16.10
2023-04-18T14:43:29.675Z,16.10
2023-04-18T14:46:31.392Z,15.80
2023-04-18T14:49:33.762Z,15.70
2023-04-18T14:52:36.086Z,15.50
2023-04-18T14:55:40.626Z,15.50
2023-04-18T14:58:42.874Z,15.60
2023-04-18T15:01:44.490Z,15.50
2023-04-18T15:04:46.214Z,15.60
2023-04-18T15:07:48.001Z,15.60
2023-04-18T15:10:49.667Z,15.60
2023-04-18T15:13:51.268Z,15.60
2023-04-18T15:16:52.899Z,15.50
2023-04-18T15:19:54.491Z,15.40
2023-04-18T15:22:58.818Z,15.50
2023-04-18T15:26:00.611Z,15.60
2023-04-18T15:29:05.587Z,15.70
2023-04-18T15:32:07.378Z,15.90
2023-04-18T15:35:10.524Z,16.00
2023-04-18T15:38:12.191Z,16.10
2023-04-18T15:41:13.832Z,15.90
2023-04-18T15:44:15.531Z,15.80
2023-04-18T15:47:17.235Z,15.80
2023-04-18T15:50:18.849Z,15.90
2023-04-18T15:53:20.634Z,15.90
2023-04-18T15:56:24.859Z,15.90
2023-04-18T15:59:26.444Z,15.80
2023-04-18T16:02:28.065Z,15.70
2023-04-18T16:05:30.797Z,15.60
2023-04-18T16:08:33.376Z,15.50
2023-04-18T16:11:35.252Z,15.40
2023-04-18T16:14:36.857Z,15.30
2023-04-18T16:17:38.843Z,15.30
2023-04-18T16:20:40.488Z,15.30
2023-04-18T16:23:43.044Z,15.10
2023-04-18T16:26:44.673Z,14.90
2023-04-18T16:29:47.219Z,14.90
2023-04-18T16:32:49.122Z,14.90
2023-04-18T16:35:50.678Z,14.90
2023-04-18T16:38:52.266Z,14.90
2023-04-18T16:41:54.400Z,14.90
2023-04-18T16:44:55.947Z,14.90
2023-04-18T16:47:57.640Z,15.10
2023-04-18T16:50:59.262Z,15.50
2023-04-18T16:54:00.841Z,15.30
2023-04-18T16:57:02.720Z,15.00
2023-04-18T17:00:05.045Z,14.70
2023-04-18T17:03:12.762Z,14.60
2023-04-18T17:06:14.475Z,14.50
2023-04-18T17:09:16.289Z,14.50
2023-04-18T17:12:21.355Z,14.40
2023-04-18T17:15:23.036Z,14.30
2023-04-18T17:18:24.738Z,14.20
2023-04-18T17:21:27.343Z,14.20
2023-04-18T17:24:28.880Z,14.20
2023-04-18T17:27:30.492Z,14.10
2023-04-18T17:30:32.146Z,14.10
2023-04-18T17:33:33.780Z,14.00
2023-04-18T17:36:35.542Z,14.00
2023-04-18T17:39:37.447Z,13.90
2023-04-18T17:42:39.125Z,13.80
2023-04-18T17:45:41.668Z,13.70
2023-04-18T17:48:43.308Z,13.70
2023-04-18T17:51:44.921Z,13.60
2023-04-18T17:54:46.560Z,13.50
2023-04-18T17:57:48.108Z,13.50
2023-04-18T18:00:49.891Z,13.50
2023-04-18T18:03:53.592Z,13.50
2023-04-18T18:06:56.244Z,13.40
2023-04-18T18:09:57.981Z,13.30
2023-04-18T18:12:59.646Z,13.30
2023-04-18T18:16:04.481Z,13.20
2023-04-18T18:19:08.940Z,13.20
2023-04-18T18:22:10.994Z,13.10
2023-04-18T18:25:12.675Z,13.10
2023-04-18T18:28:14.267Z,13.00
2023-04-18T18:31:16.691Z,13.00
2023-04-18T18:34:19.793Z,12.90
2023-04-18T18:37:23.184Z,12.90
2023-04-18T18:40:24.817Z,12.90
2023-04-18T18:43:26.428Z,12.80
2023-04-18T18:46:28.084Z,12.80
2023-04-18T18:49:29.725Z,12.80
2023-04-18T18:52:32.546Z,12.70
2023-04-18T18:55:34.171Z,12.70
2023-04-18T18:58:35.883Z,12.60
2023-04-18T19:01:37.695Z,12.50
2023-04-18T19:04:39.456Z,12.50
2023-04-18T19:07:43.918Z,12.50
2023-04-18T19:10:45.526Z,12.40
2023-04-18T19:13:47.113Z,12.30
2023-04-18T19:16:48.705Z,12.30
2023-04-18T19:19:51.593Z,12.20
2023-04-18T19:22:53.156Z,12.20
2023-04-18T19:25:54.738Z,12.20
2023-04-18T19:28:56.353Z,12.10
2023-04-18T19:31:57.974Z,12.10
2023-04-18T19:34:59.720Z,12.10
2023-04-18T19:38:02.200Z,12.10
2023-04-18T19:41:03.761Z,12.00
2023-04-18T19:44:05.385Z,12.00
2023-04-18T19:47:06.980Z,12.00
2023-04-18T19:50:08.953Z,12.00
2023-04-18T19:53:11.159Z,12.00
2023-04-18T19:56:14.206Z,11.90
2023-04-18T19:59:16.035Z,12.00
2023-04-18T20:02:17.928Z,11.90
2023-04-18T20:05:19.748Z,11.90
2023-04-18T20:08:21.417Z,11.90
2023-04-18T20:11:22.969Z,11.80
2023-04-18T20:14:24.598Z,11.90
2023-04-18T20:17:26.429Z,11.90
2023-04-18T20:20:28.240Z,11.80
2023-04-18T20:23:29.856Z,11.80
2023-04-18T20:26:31.464Z,11.80
2023-04-18T20:29:33.084Z,11.80
2023-04-18T20:32:34.757Z,11.80
2023-04-18T20:35:36.546Z,11.70
2023-04-18T20:38:38.192Z,11.70
2023-04-18T20:41:51.088Z,11.70
2023-04-18T20:44:54.541Z,11.70
2023-04-18T20:47:56.866Z,11.70
2023-04-18T20:50:58.529Z,11.70
2023-04-18T20:54:00.635Z,11.60
2023-04-18T20:57:02.612Z,11.60
2023-04-18T21:00:06.974Z,11.60
2023-04-18T21:03:08.780Z,11.60
2023-04-18T21:06:10.499Z,11.60
2023-04-18T21:09:12.192Z,11.60
2023-04-18T21:12:13.958Z,11.60
2023-04-18T21:15:15.563Z,11.60
2023-04-18T21:18:18.056Z,11.60
2023-04-18T21:21:19.614Z,11.60
2023-04-18T21:24:21.189Z,11.60
2023-04-18T21:27:22.752Z,11.50
2023-04-18T21:30:24.337Z,11.60
2023-04-18T21:33:26.150Z,11.60
2023-04-18T21:36:30.559Z,11.60
2023-04-18T21:39:32.123Z,11.50
2023-04-18T21:42:35.054Z,11.50
2023-04-18T21:45:36.656Z,11.50
2023-04-18T21:48:40.663Z,11.50
2023-04-18T21:51:42.273Z,11.50
2023-04-18T21:54:43.861Z,11.40
2023-04-18T21:57:45.384Z,11.40
2023-04-18T22:00:47.026Z,11.40
2023-04-18T22:03:48.773Z,11.40
2023-04-18T22:06:50.564Z,11.30
2023-04-18T22:09:52.626Z,11.30
2023-04-18T22:12:54.210Z,11.30
2023-04-18T22:15:58.006Z,11.20
2023-04-18T22:19:01.013Z,11.20
2023-04-18T22:22:02.617Z,11.20
2023-04-18T22:25:07.081Z,11.20
2023-04-18T22:28:08.698Z,11.20
2023-04-18T22:31:10.331Z,11.10
2023-04-18T22:34:12.029Z,11.10
2023-04-18T22:37:13.602Z,11.10
2023-04-18T22:40:16.361Z,11.10
2023-04-18T22:43:22.541Z,11.10
2023-04-18T22:46:24.435Z,11.10
2023-04-18T22:49:26.162Z,11.00
2023-04-18T22:52:28.973Z,11.00
2023-04-18T22:55:30.659Z,11.00
2023-04-18T22:58:32.469Z,11.00
2023-04-18T23:01:34.217Z,11.00
2023-04-18T23:04:36.213Z,10.90
2023-04-18T23:07:37.943Z,10.90
2023-04-18T23:10:39.621Z,10.90
2023-04-18T23:13:41.408Z,10.90
2023-04-18T23:16:43.933Z,10.80
2023-04-18T23:19:45.663Z,10.80
2023-04-18T23:22:49.923Z,10.80
2023-04-18T23:25:52.114Z,10.70
2023-04-18T23:28:53.839Z,10.80
2023-04-18T23:31:55.556Z,10.80
2023-04-18T23:34:57.190Z,10.80
2023-04-18T23:37:58.803Z,10.80
2023-04-18T23:41:00.625Z,10.80
2023-04-18T23:44:02.281Z,10.80
2023-04-18T23:47:04.089Z,10.80
2023-04-18T23:50:06.375Z,10.80
2023-04-18T23:53:07.948Z,10.80
2023-04-18T23:56:09.576Z,10.80
2023-04-18T23:59:11.148Z,10.80
